South Newbury, Vermont
Current Conditions -  °F | °C
As of 2:36 PM on Friday 28 Nov 2014 (Local Time) from KMPV Reporting Station
Light Snow Light Snow  
Wind Chill: 11°   Ceiling: 2700
Heat Index: 22°   Visibility: 3mi
Dew Point: 16°   Wind: 10mph
Humidity: 78%   Direction: 290°WNW
Pressure: 30.07"   Gusts: NA
Location:  44.1081°N, 72.1208°W
Report Text: KMPV 281936Z AUTO 29009KT 3SM -SN FEW019 BKN027 OVC050 M06/M09 A3007 RMK AO2 SNB11 P0000 T10561089
Loading
Personal Weather Stations






























Interactive Weather Map New forecast layout! Learn more

10-Day Weather Forecast

Advertisements
Track Severe Weather on mobile